createdAt,value
2022-10-01T00:02:28.315Z,90.56
2022-10-01T00:05:31.394Z,90.68
2022-10-01T00:08:34.297Z,90.52
2022-10-01T00:11:38.245Z,90.47
2022-10-01T00:14:40.774Z,90.45
2022-10-01T00:17:43.974Z,90.73
2022-10-01T00:20:47.749Z,91.13
2022-10-01T00:23:59.733Z,91.69
2022-10-01T00:27:02.299Z,91.55
2022-10-01T00:30:06.700Z,91.88
2022-10-01T00:33:11.793Z,92.31
2022-10-01T00:36:14.943Z,91.87
2022-10-01T00:39:18.515Z,91.82
2022-10-01T00:42:29.372Z,92.46
2022-10-01T00:45:32.234Z,92.01
2022-10-01T00:48:44.667Z,92.71
2022-10-01T00:51:51.105Z,93.36
2022-10-01T00:55:12.760Z,93.92
2022-10-01T00:58:15.950Z,95.38
2022-10-01T01:01:19.206Z,94.98
2022-10-01T01:04:21.855Z,95.63
2022-10-01T01:07:24.989Z,95.22
2022-10-01T01:11:09.304Z,95.98
2022-10-01T01:14:34.085Z,95.02
2022-10-01T01:17:44.537Z,95.55
2022-10-01T01:21:08.728Z,95.71
2022-10-01T01:24:45.119Z,95.78
2022-10-01T01:27:47.954Z,94.85
2022-10-01T01:30:56.139Z,95.18
2022-10-01T01:34:00.947Z,94.44
2022-10-01T01:37:15.745Z,94.60
2022-10-01T01:40:21.190Z,94.11
2022-10-01T01:43:40.889Z,94.19
2022-10-01T01:46:49.600Z,93.98
2022-10-01T01:49:53.440Z,93.77
2022-10-01T01:52:56.417Z,93.58
2022-10-01T01:56:00.604Z,93.41
2022-10-01T01:59:04.008Z,93.15
2022-10-01T02:02:08.893Z,92.67
2022-10-01T02:05:18.286Z,91.83
2022-10-01T02:08:31.817Z,92.09
2022-10-01T02:11:45.813Z,91.70
2022-10-01T02:15:20.521Z,91.61
2022-10-01T02:18:39.939Z,91.54
2022-10-01T02:21:56.068Z,91.39
2022-10-01T02:25:02.127Z,91.19
2022-10-01T02:28:11.350Z,91.07
2022-10-01T02:31:16.072Z,91.29
2022-10-01T02:34:21.032Z,91.05
2022-10-01T02:37:26.778Z,91.06
2022-10-01T02:40:33.595Z,91.36
2022-10-01T02:43:43.246Z,91.36
2022-10-01T02:46:52.574Z,91.11
2022-10-01T02:49:56.131Z,91.02
2022-10-01T02:53:13.819Z,91.00
2022-10-01T02:56:36.904Z,91.13
2022-10-01T02:59:39.525Z,91.64
2022-10-01T03:02:42.829Z,91.58
2022-10-01T03:05:45.603Z,91.63
2022-10-01T03:08:48.488Z,91.47
2022-10-01T03:11:51.501Z,91.18
2022-10-01T03:14:56.502Z,90.50
2022-10-01T03:17:59.165Z,90.05
2022-10-01T03:21:02.001Z,89.96
2022-10-01T03:24:04.581Z,90.17
2022-10-01T03:27:07.640Z,90.29
2022-10-01T03:30:11.172Z,90.20
2022-10-01T03:33:14.119Z,90.32
2022-10-01T03:36:18.109Z,90.34
2022-10-01T03:39:21.073Z,90.55
2022-10-01T03:42:23.644Z,90.21
2022-10-01T03:45:26.731Z,89.01
2022-10-01T03:48:30.195Z,89.79
2022-10-01T03:51:34.738Z,89.60
2022-10-01T03:54:39.098Z,90.68
2022-10-01T03:57:41.908Z,90.61
2022-10-01T04:00:49.833Z,90.05
2022-10-01T04:03:55.012Z,90.28
2022-10-01T04:06:57.638Z,90.26
2022-10-01T04:10:00.614Z,90.19
2022-10-01T04:13:03.293Z,90.05
2022-10-01T04:16:07.261Z,90.16
2022-10-01T04:19:09.835Z,89.94
2022-10-01T04:22:12.802Z,90.39
2022-10-01T04:25:15.636Z,90.23
2022-10-01T04:28:18.843Z,90.01
2022-10-01T04:31:24.618Z,89.80
2022-10-01T04:34:47.647Z,89.71
2022-10-01T04:37:58.615Z,89.50
2022-10-01T04:41:01.558Z,89.69
2022-10-01T04:44:04.428Z,89.63
2022-10-01T04:47:08.797Z,89.83
2022-10-01T04:50:11.725Z,89.99
2022-10-01T04:53:15.975Z,90.68
2022-10-01T04:56:18.759Z,90.84
2022-10-01T04:59:21.898Z,90.69
2022-10-01T05:02:24.624Z,90.91
2022-10-01T05:05:29.936Z,91.01
2022-10-01T05:08:32.514Z,90.48
2022-10-01T05:11:37.835Z,91.27
2022-10-01T05:14:40.758Z,91.43
2022-10-01T05:17:43.851Z,91.06
2022-10-01T05:20:46.977Z,90.48
2022-10-01T05:23:49.909Z,91.27
2022-10-01T05:26:56.402Z,92.17
2022-10-01T05:29:59.372Z,92.37
2022-10-01T05:33:03.706Z,92.51
2022-10-01T05:36:07.121Z,92.50
2022-10-01T05:39:09.843Z,92.20
2022-10-01T05:42:14.161Z,92.35
2022-10-01T05:45:20.261Z,92.95
2022-10-01T05:48:23.302Z,93.53
2022-10-01T05:51:26.266Z,93.85
2022-10-01T05:54:29.694Z,94.43
2022-10-01T05:57:32.400Z,95.62
2022-10-01T06:00:36.066Z,95.96
2022-10-01T06:03:39.150Z,96.09
2022-10-01T06:06:42.235Z,95.91
2022-10-01T06:09:45.455Z,95.92
2022-10-01T06:12:48.775Z,95.46
2022-10-01T06:15:53.219Z,95.27
2022-10-01T06:18:57.802Z,95.29
2022-10-01T06:22:00.803Z,95.00
2022-10-01T06:25:03.558Z,94.67
2022-10-01T06:28:08.800Z,95.09
2022-10-01T06:31:11.859Z,94.68
2022-10-01T06:34:14.785Z,94.26
2022-10-01T06:37:17.780Z,94.85
2022-10-01T06:40:20.740Z,94.94
2022-10-01T06:43:25.514Z,94.97
2022-10-01T06:46:29.112Z,95.32
2022-10-01T06:49:31.731Z,95.17
2022-10-01T06:52:55.118Z,95.26
2022-10-01T06:55:58.099Z,95.19
2022-10-01T06:59:01.056Z,95.14
2022-10-01T07:02:05.045Z,95.70
2022-10-01T07:05:08.803Z,95.81
2022-10-01T07:08:12.179Z,95.73
2022-10-01T07:11:16.567Z,95.55
2022-10-01T07:14:20.669Z,95.41
2022-10-01T07:17:23.675Z,95.30
2022-10-01T07:20:26.279Z,95.43
2022-10-01T07:23:29.291Z,95.42
2022-10-01T07:26:33.274Z,95.15
2022-10-01T07:29:36.194Z,95.11
2022-10-01T07:32:39.799Z,94.66
2022-10-01T07:35:47.993Z,94.34
2022-10-01T07:38:51.453Z,94.46
2022-10-01T07:41:57.231Z,94.37
2022-10-01T07:44:59.907Z,94.32
2022-10-01T07:48:05.721Z,94.44
2022-10-01T07:51:08.418Z,94.19
2022-10-01T07:54:11.988Z,94.24
2022-10-01T07:57:15.684Z,93.92
2022-10-01T08:00:20.546Z,94.38
2022-10-01T08:03:23.835Z,94.12
2022-10-01T08:06:26.586Z,93.82
2022-10-01T08:09:31.863Z,93.69
2022-10-01T08:12:34.553Z,93.69
2022-10-01T08:15:37.452Z,93.62
2022-10-01T08:18:40.915Z,93.09
2022-10-01T08:21:43.827Z,92.73
2022-10-01T08:24:46.516Z,92.71
2022-10-01T08:27:49.419Z,92.24
2022-10-01T08:30:52.017Z,92.23
2022-10-01T08:33:55.922Z,91.92
2022-10-01T08:36:58.474Z,91.79
2022-10-01T08:40:01.586Z,91.26
2022-10-01T08:43:07.668Z,91.84
2022-10-01T08:46:15.120Z,90.16
2022-10-01T08:49:23.964Z,90.22
2022-10-01T08:52:32.422Z,89.22
2022-10-01T08:55:37.585Z,88.89
2022-10-01T08:58:45.505Z,87.72
2022-10-01T09:01:49.357Z,87.31
2022-10-01T09:05:01.773Z,87.80
2022-10-01T09:08:23.721Z,88.14
2022-10-01T09:11:49.219Z,88.32
2022-10-01T09:15:20.758Z,89.59
2022-10-01T09:18:29.488Z,89.99
2022-10-01T09:22:03.748Z,89.67
2022-10-01T09:25:09.863Z,90.20
2022-10-01T09:28:23.893Z,90.91
2022-10-01T09:31:48.792Z,90.45
2022-10-01T09:34:53.666Z,90.94
2022-10-01T09:37:57.735Z,91.34
2022-10-01T09:41:00.922Z,91.63
2022-10-01T09:44:04.584Z,91.51
2022-10-01T09:47:20.808Z,91.52
2022-10-01T09:50:40.198Z,90.95
2022-10-01T09:54:05.183Z,90.47
2022-10-01T09:57:13.689Z,90.41
2022-10-01T10:00:19.686Z,91.12
2022-10-01T10:03:30.575Z,90.92
2022-10-01T10:06:33.821Z,90.56
2022-10-01T10:09:37.764Z,91.01
2022-10-01T10:12:43.519Z,90.96
2022-10-01T10:16:00.388Z,91.03
2022-10-01T10:19:22.596Z,90.63
2022-10-01T10:22:27.570Z,90.59
2022-10-01T10:25:30.157Z,90.26
2022-10-01T10:28:44.319Z,89.53
2022-10-01T10:31:48.266Z,90.22
2022-10-01T10:34:53.546Z,89.72
2022-10-01T10:37:59.990Z,89.51
2022-10-01T10:41:04.077Z,89.49
2022-10-01T10:44:08.583Z,88.61
2022-10-01T10:47:15.031Z,88.00
2022-10-01T10:50:38.402Z,88.31
2022-10-01T10:53:46.185Z,88.72
2022-10-01T10:57:15.936Z,87.96
2022-10-01T11:00:24.616Z,87.01
2022-10-01T11:03:31.584Z,87.86
2022-10-01T11:06:34.717Z,87.66
2022-10-01T11:09:53.245Z,87.81
2022-10-01T11:13:34.580Z,88.04
2022-10-01T11:17:05.992Z,87.37
2022-10-01T11:20:20.872Z,87.62
2022-10-01T11:24:14.891Z,88.16
2022-10-01T11:27:43.297Z,87.75
2022-10-01T11:31:26.408Z,87.54
2022-10-01T11:34:55.783Z,88.56
2022-10-01T11:38:32.869Z,88.59
2022-10-01T11:41:35.835Z,88.27
2022-10-01T11:45:01.673Z,88.89
2022-10-01T11:48:15.617Z,88.69
2022-10-01T11:51:29.960Z,89.04
2022-10-01T11:54:36.341Z,89.38
2022-10-01T11:57:58.770Z,89.47
2022-10-01T12:01:23.955Z,89.63
2022-10-01T12:04:42.150Z,88.80
2022-10-01T12:07:50.584Z,88.89
2022-10-01T12:11:09.243Z,89.12
2022-10-01T12:14:19.111Z,89.19
2022-10-01T12:17:37.554Z,89.84
2022-10-01T12:20:44.836Z,90.12
2022-10-01T12:24:02.928Z,90.74
2022-10-01T12:27:37.208Z,91.40
2022-10-01T12:30:50.181Z,92.05
2022-10-01T12:34:24.499Z,92.36
2022-10-01T12:37:39.669Z,92.20
2022-10-01T12:41:10.539Z,92.19
2022-10-01T12:44:28.002Z,92.22
2022-10-01T12:47:53.151Z,92.64
2022-10-01T12:51:26.680Z,92.38
2022-10-01T12:54:36.389Z,92.68
2022-10-01T12:57:55.687Z,92.07
2022-10-01T13:01:20.607Z,92.13
2022-10-01T13:04:51.183Z,92.07
2022-10-01T13:08:09.421Z,91.96
2022-10-01T13:11:38.066Z,91.73
2022-10-01T13:14:44.611Z,91.63
2022-10-01T13:17:55.821Z,91.65
2022-10-01T13:21:17.079Z,91.72
2022-10-01T13:24:29.503Z,90.52
2022-10-01T13:27:47.546Z,89.78
2022-10-01T13:30:53.341Z,89.20
2022-10-01T13:33:57.847Z,88.93
2022-10-01T13:37:29.904Z,88.94
2022-10-01T13:40:35.647Z,88.72
2022-10-01T13:43:38.507Z,88.85
2022-10-01T13:47:13.459Z,88.44
2022-10-01T13:50:24.481Z,89.01
2022-10-01T13:53:28.441Z,88.65
2022-10-01T13:56:36.252Z,88.29
2022-10-01T13:59:39.187Z,88.01
2022-10-01T14:02:45.598Z,87.33
2022-10-01T14:05:54.995Z,87.15
2022-10-01T14:09:05.811Z,87.18
2022-10-01T14:12:31.877Z,87.37
2022-10-01T14:16:00.099Z,87.74
2022-10-01T14:19:04.646Z,88.12
2022-10-01T14:22:29.201Z,87.62
2022-10-01T14:26:01.616Z,88.07
2022-10-01T14:29:17.075Z,86.90
2022-10-01T14:32:44.373Z,86.24
2022-10-01T14:35:55.754Z,86.32
2022-10-01T14:39:26.335Z,85.91
2022-10-01T14:42:29.791Z,86.52
2022-10-01T14:45:32.683Z,86.18
2022-10-01T14:48:38.051Z,86.63
2022-10-01T14:51:53.665Z,87.39
2022-10-01T14:55:01.592Z,86.75
2022-10-01T14:58:05.852Z,86.61
2022-10-01T15:01:21.781Z,85.07
2022-10-01T15:04:26.426Z,85.69
2022-10-01T15:07:35.230Z,85.94
2022-10-01T15:10:41.832Z,85.82
2022-10-01T15:13:46.572Z,85.69
2022-10-01T15:16:50.285Z,85.85
2022-10-01T15:19:57.948Z,86.35
2022-10-01T15:23:01.853Z,86.94
2022-10-01T15:26:11.542Z,87.82
2022-10-01T15:29:16.769Z,86.99
2022-10-01T15:32:23.335Z,86.66
2022-10-01T15:35:26.594Z,87.08
2022-10-01T15:38:31.994Z,86.60
2022-10-01T15:41:35.051Z,86.75
2022-10-01T15:44:42.932Z,87.00
2022-10-01T15:47:57.067Z,87.45
2022-10-01T15:51:03.700Z,86.95
2022-10-01T15:54:09.054Z,87.91
2022-10-01T15:57:25.932Z,88.91
2022-10-01T16:00:47.784Z,89.30
2022-10-01T16:03:56.360Z,89.66
2022-10-01T16:06:59.014Z,89.35
2022-10-01T16:10:16.836Z,89.06
2022-10-01T16:13:43.124Z,89.41
2022-10-01T16:16:46.205Z,89.22
2022-10-01T16:19:50.092Z,89.56
2022-10-01T16:23:31.416Z,90.01
2022-10-01T16:26:37.291Z,90.27
2022-10-01T16:29:40.792Z,90.40
2022-10-01T16:32:43.346Z,90.61
2022-10-01T16:35:48.537Z,90.35
2022-10-01T16:38:51.786Z,90.36
2022-10-01T16:42:19.205Z,90.63
2022-10-01T16:45:25.301Z,89.95
2022-10-01T16:48:28.472Z,89.98
2022-10-01T16:51:32.645Z,89.95
2022-10-01T16:54:36.272Z,89.84
2022-10-01T16:57:39.162Z,89.81
2022-10-01T17:00:42.114Z,89.19
2022-10-01T17:03:44.684Z,88.56
2022-10-01T17:06:48.400Z,88.28
2022-10-01T17:09:51.006Z,87.74
2022-10-01T17:12:54.954Z,87.95
2022-10-01T17:15:57.632Z,87.40
2022-10-01T17:19:01.773Z,87.61
2022-10-01T17:22:04.351Z,87.52
2022-10-01T17:25:07.878Z,87.22
2022-10-01T17:28:21.374Z,87.49
2022-10-01T17:31:24.289Z,87.00
2022-10-01T17:34:26.911Z,86.67
2022-10-01T17:37:29.819Z,86.14
2022-10-01T17:40:32.741Z,85.90
2022-10-01T17:43:39.169Z,85.64
2022-10-01T17:46:41.870Z,85.53
2022-10-01T17:49:44.795Z,85.74
2022-10-01T17:52:48.082Z,85.72
2022-10-01T17:55:51.061Z,85.32
2022-10-01T17:58:54.715Z,85.76
2022-10-01T18:01:58.066Z,85.84
2022-10-01T18:05:04.184Z,86.60
2022-10-01T18:08:06.965Z,86.70
2022-10-01T18:11:12.103Z,87.38
2022-10-01T18:14:15.315Z,87.52
2022-10-01T18:17:18.370Z,86.87
2022-10-01T18:20:21.997Z,86.93
2022-10-01T18:23:24.923Z,88.18
2022-10-01T18:26:27.630Z,88.47
2022-10-01T18:29:30.537Z,88.85
2022-10-01T18:32:40.438Z,88.28
2022-10-01T18:35:44.501Z,88.93
2022-10-01T18:38:50.407Z,89.45
2022-10-01T18:41:54.819Z,89.18
2022-10-01T18:44:59.871Z,88.97
2022-10-01T18:48:18.054Z,89.79
2022-10-01T18:51:38.043Z,90.08
2022-10-01T18:54:50.156Z,89.79
2022-10-01T18:57:55.743Z,89.38
2022-10-01T19:01:32.021Z,88.75
2022-10-01T19:05:01.713Z,89.22
2022-10-01T19:08:53.806Z,89.22
2022-10-01T19:12:35.657Z,88.67
2022-10-01T19:16:16.148Z,88.28
2022-10-01T19:19:48.719Z,88.44
2022-10-01T19:23:23.620Z,89.23
2022-10-01T19:26:36.360Z,89.12
2022-10-01T19:30:07.091Z,88.82
2022-10-01T19:33:11.976Z,88.36
2022-10-01T19:36:34.556Z,88.63
2022-10-01T19:39:39.503Z,88.03
2022-10-01T19:42:49.754Z,88.05
2022-10-01T19:45:59.451Z,88.04
2022-10-01T19:49:02.608Z,88.21
2022-10-01T19:52:18.455Z,88.55
2022-10-01T19:55:25.076Z,87.97
2022-10-01T19:58:30.733Z,88.31
2022-10-01T20:01:51.779Z,88.10
2022-10-01T20:05:05.472Z,87.36
2022-10-01T20:08:29.069Z,87.37
2022-10-01T20:11:50.272Z,86.33
2022-10-01T20:15:34.643Z,85.82
2022-10-01T20:18:40.139Z,86.60
2022-10-01T20:22:14.354Z,86.53
2022-10-01T20:25:25.973Z,86.80
2022-10-01T20:28:41.333Z,87.23
2022-10-01T20:31:52.842Z,86.97
2022-10-01T20:35:24.758Z,87.35
2022-10-01T20:38:39.750Z,87.15
2022-10-01T20:41:50.882Z,87.46
2022-10-01T20:44:54.423Z,87.57
2022-10-01T20:48:02.942Z,87.22
2022-10-01T20:51:12.810Z,87.30
2022-10-01T20:54:23.218Z,87.33
2022-10-01T20:57:39.810Z,87.50
2022-10-01T21:00:45.944Z,87.03
2022-10-01T21:03:57.364Z,86.92
2022-10-01T21:07:27.965Z,86.46
2022-10-01T21:10:40.069Z,85.72
2022-10-01T21:13:56.810Z,86.57
2022-10-01T21:17:11.516Z,86.22
2022-10-01T21:20:17.098Z,86.40
2022-10-01T21:23:43.292Z,86.54
2022-10-01T21:27:22.977Z,86.35
2022-10-01T21:30:35.889Z,85.59
2022-10-01T21:33:54.094Z,85.68
2022-10-01T21:37:21.873Z,85.93
2022-10-01T21:40:52.022Z,84.80
2022-10-01T21:44:08.863Z,84.17
2022-10-01T21:47:42.759Z,85.69
2022-10-01T21:51:00.282Z,84.88
2022-10-01T21:54:18.281Z,85.38
2022-10-01T21:57:41.083Z,85.46
2022-10-01T22:00:53.270Z,84.48
2022-10-01T22:04:21.153Z,84.54
2022-10-01T22:07:37.164Z,84.49
2022-10-01T22:10:47.275Z,84.75
2022-10-01T22:13:54.054Z,85.26
2022-10-01T22:17:03.592Z,85.25
2022-10-01T22:20:08.134Z,85.28
2022-10-01T22:23:14.926Z,86.31
2022-10-01T22:26:21.769Z,85.46
2022-10-01T22:29:29.562Z,85.21
2022-10-01T22:32:40.425Z,85.83
2022-10-01T22:35:54.244Z,86.25
2022-10-01T22:39:04.915Z,86.24
2022-10-01T22:42:15.455Z,86.42
2022-10-01T22:45:18.454Z,86.33
2022-10-01T22:48:30.431Z,86.11
2022-10-01T22:51:38.719Z,86.46
2022-10-01T22:55:04.488Z,86.61
2022-10-01T22:58:24.874Z,86.82
2022-10-01T23:01:46.615Z,86.77
2022-10-01T23:05:06.542Z,87.04
2022-10-01T23:08:37.119Z,87.39
2022-10-01T23:11:55.205Z,86.31
2022-10-01T23:15:07.808Z,86.93
2022-10-01T23:18:40.520Z,86.92
2022-10-01T23:21:59.992Z,87.02
2022-10-01T23:25:35.541Z,87.04
2022-10-01T23:28:50.612Z,86.92
2022-10-01T23:32:22.875Z,86.65
2022-10-01T23:35:39.111Z,86.62
2022-10-01T23:39:03.172Z,86.51
2022-10-01T23:42:17.322Z,86.30
2022-10-01T23:45:36.253Z,86.21
2022-10-01T23:48:48.491Z,86.47
2022-10-01T23:52:29.323Z,86.80
2022-10-01T23:56:14.253Z,86.91
2022-10-01T23:59:37.622Z,86.66
